createdAt,value
2023-03-24T00:00:57.675Z,95429.11
2023-03-24T00:03:26.159Z,95429.13
2023-03-24T00:06:05.173Z,95427.37
2023-03-24T00:08:39.084Z,95426.70
2023-03-24T00:11:11.778Z,95429.89
2023-03-24T00:13:41.279Z,95428.34
2023-03-24T00:16:13.341Z,95424.27
2023-03-24T00:18:42.485Z,95422.73
2023-03-24T00:21:13.259Z,95430.23
2023-03-24T00:23:43.809Z,95432.64
2023-03-24T00:26:20.204Z,95428.23
2023-03-24T00:28:51.980Z,95430.67
2023-03-24T00:31:22.421Z,95434.44
2023-03-24T00:33:53.945Z,95431.56
2023-03-24T00:36:25.904Z,95430.24
2023-03-24T00:38:56.906Z,95434.86
2023-03-24T00:41:33.950Z,95436.19
2023-03-24T00:44:08.219Z,95428.25
2023-03-24T00:46:38.790Z,95422.52
2023-03-24T00:49:10.990Z,95421.50
2023-03-24T00:51:50.930Z,95418.52
2023-03-24T00:54:26.092Z,95422.27
2023-03-24T00:56:56.156Z,95422.95
2023-03-24T00:59:25.389Z,95426.48
2023-03-24T01:01:55.854Z,95426.35
2023-03-24T01:04:26.943Z,95424.47
2023-03-24T01:06:58.807Z,95426.04
2023-03-24T01:09:28.961Z,95419.86
2023-03-24T01:11:58.299Z,95419.07
2023-03-24T01:14:28.690Z,95422.05
2023-03-24T01:17:00.857Z,95421.84
2023-03-24T01:19:29.815Z,95417.41
2023-03-24T01:22:02.595Z,95419.62
2023-03-24T01:24:33.023Z,95412.34
2023-03-24T01:27:01.789Z,95408.38
2023-03-24T01:29:30.676Z,95413.22
2023-03-24T01:32:02.773Z,95407.94
2023-03-24T01:34:34.807Z,95409.26
2023-03-24T01:37:04.163Z,95409.26
2023-03-24T01:39:34.816Z,95407.95
2023-03-24T01:42:03.764Z,95408.29
2023-03-24T01:44:38.086Z,95407.05
2023-03-24T01:47:09.985Z,95410.02
2023-03-24T01:49:41.583Z,95410.01
2023-03-24T01:52:13.438Z,95415.00
2023-03-24T01:54:58.774Z,95412.56
2023-03-24T01:57:36.546Z,95412.34
2023-03-24T02:00:08.422Z,95408.45
2023-03-24T02:02:37.961Z,95416.08
2023-03-24T02:05:10.605Z,95417.38
2023-03-24T02:08:17.396Z,95419.14
2023-03-24T02:10:47.972Z,95420.46
2023-03-24T02:13:18.243Z,95415.38
2023-03-24T02:16:21.859Z,95416.67
2023-03-24T02:18:59.628Z,95420.62
2023-03-24T02:22:05.173Z,95421.89
2023-03-24T02:25:02.416Z,95423.98
2023-03-24T02:27:46.261Z,95418.34
2023-03-24T02:30:37.743Z,95411.84
2023-03-24T02:33:27.384Z,95416.19
2023-03-24T02:36:22.114Z,95419.13
2023-03-24T02:39:13.454Z,95424.62
2023-03-24T02:41:55.917Z,95410.00
2023-03-24T02:44:46.745Z,95411.65
2023-03-24T02:47:35.048Z,95414.42
2023-03-24T02:50:24.641Z,95408.92
2023-03-24T02:53:14.684Z,95390.23
2023-03-24T02:55:49.573Z,95393.55
2023-03-24T02:58:29.904Z,95391.33
2023-03-24T03:01:07.628Z,95390.23
2023-03-24T03:03:45.405Z,95398.52
2023-03-24T03:06:25.887Z,95392.26
2023-03-24T03:08:59.515Z,95385.41
2023-03-24T03:11:31.347Z,95385.06
2023-03-24T03:14:03.006Z,95382.55
2023-03-24T03:16:36.258Z,95385.41
2023-03-24T03:19:12.542Z,95385.62
2023-03-24T03:21:44.487Z,95391.36
2023-03-24T03:24:40.731Z,95391.70
2023-03-24T03:27:15.428Z,95392.92
2023-03-24T03:29:49.616Z,95392.60
2023-03-24T03:32:26.200Z,95392.52
2023-03-24T03:34:57.963Z,95387.44
2023-03-24T03:37:32.157Z,95380.83
2023-03-24T03:40:12.785Z,95374.52
2023-03-24T03:42:43.522Z,95373.06
2023-03-24T03:45:14.473Z,95368.02
2023-03-24T03:47:43.604Z,95381.75
2023-03-24T03:50:12.682Z,95382.61
2023-03-24T03:52:43.474Z,95388.70
2023-03-24T03:55:14.055Z,95395.42
2023-03-24T03:57:45.596Z,95389.15
2023-03-24T04:00:19.369Z,95393.87
2023-03-24T04:09:27.246Z,95397.92
2023-03-24T04:12:14.104Z,95393.72
2023-03-24T04:15:04.036Z,95392.46
2023-03-24T04:17:52.284Z,95398.05
2023-03-24T04:20:24.598Z,95404.87
2023-03-24T04:23:09.152Z,95403.36
2023-03-24T04:26:10.543Z,95402.27
2023-03-24T04:28:59.743Z,95406.67
2023-03-24T04:31:34.492Z,95396.30
2023-03-24T04:34:06.103Z,95401.44
2023-03-24T04:36:50.470Z,95402.88
2023-03-24T04:39:29.836Z,95403.78
2023-03-24T04:42:04.945Z,95404.63
2023-03-24T04:44:37.278Z,95412.34
2023-03-24T04:47:08.123Z,95420.70
2023-03-24T04:49:41.406Z,95415.59
2023-03-24T04:52:10.084Z,95425.85
2023-03-24T04:54:39.024Z,95425.63
2023-03-24T04:57:10.070Z,95421.58
2023-03-24T04:59:38.776Z,95422.79
2023-03-24T05:02:14.956Z,95430.72
2023-03-24T05:04:43.634Z,95436.94
2023-03-24T05:07:17.429Z,95435.97
2023-03-24T05:09:47.612Z,95431.67
2023-03-24T05:12:16.613Z,95440.50
2023-03-24T05:14:45.445Z,95434.98
2023-03-24T05:17:23.082Z,95438.86
2023-03-24T05:19:54.360Z,95445.41
2023-03-24T05:22:43.111Z,95440.53
2023-03-24T05:25:14.888Z,95434.06
2023-03-24T05:27:44.273Z,95448.30
2023-03-24T05:30:13.886Z,95450.18
2023-03-24T05:32:45.346Z,95451.84
2023-03-24T05:35:13.926Z,95459.33
2023-03-24T05:37:42.738Z,95455.83
2023-03-24T05:40:15.318Z,95460.58
2023-03-24T05:42:44.586Z,95461.13
2023-03-24T05:45:13.611Z,95453.19
2023-03-24T05:47:43.552Z,95458.27
2023-03-24T05:50:12.696Z,95456.17
2023-03-24T05:52:44.763Z,95455.27
2023-03-24T05:55:15.193Z,95459.43
2023-03-24T05:57:44.215Z,95452.98
2023-03-24T06:00:19.595Z,95445.99
2023-03-24T06:02:51.361Z,95459.76
2023-03-24T06:05:20.723Z,95457.66
2023-03-24T06:07:58.825Z,95445.88
2023-03-24T06:10:28.472Z,95459.25
2023-03-24T06:13:00.826Z,95455.48
2023-03-24T06:15:30.943Z,95454.72
2023-03-24T06:18:01.350Z,95387.13
2023-03-24T06:20:30.181Z,95463.23
2023-03-24T06:23:00.337Z,95466.05
2023-03-24T06:25:30.276Z,95466.46
2023-03-24T06:28:03.897Z,95469.33
2023-03-24T06:30:32.804Z,95465.84
2023-03-24T06:33:07.042Z,95468.03
2023-03-24T06:39:04.244Z,95472.96
2023-03-24T06:41:35.001Z,95472.36
2023-03-24T06:44:03.871Z,95474.06
2023-03-24T06:46:32.913Z,95472.41
2023-03-24T06:49:01.782Z,95476.06
2023-03-24T06:51:30.664Z,95474.56
2023-03-24T06:53:59.857Z,95476.86
2023-03-24T07:00:11.070Z,95471.89
2023-03-24T07:02:46.827Z,95471.96
2023-03-24T07:05:18.764Z,95477.78
2023-03-24T07:10:19.765Z,95472.66
2023-03-24T07:12:49.150Z,95486.59
2023-03-24T07:15:18.729Z,95479.53
2023-03-24T07:17:47.614Z,95477.74
2023-03-24T07:20:25.321Z,95480.86
2023-03-24T07:23:03.442Z,95488.44
2023-03-24T07:25:32.402Z,95488.05
2023-03-24T07:34:22.792Z,95490.68
2023-03-24T07:36:55.885Z,95489.15
2023-03-24T08:03:25.959Z,95466.95
2023-03-24T08:05:58.287Z,95467.72
2023-03-24T08:08:34.642Z,95456.86
2023-03-24T08:11:04.398Z,95456.36
2023-03-24T08:13:42.238Z,95450.55
2023-03-24T08:16:14.563Z,95454.33
2023-03-24T08:18:43.513Z,95453.47
2023-03-24T08:27:12.319Z,95445.25
2023-03-24T08:27:30.082Z,95445.40
2023-03-24T08:30:01.799Z,95447.73
2023-03-24T08:42:24.187Z,95434.25
2023-03-24T08:44:59.919Z,95425.27
2023-03-24T08:47:32.768Z,95426.24
2023-03-24T08:50:05.105Z,95421.00
2023-03-24T08:52:36.585Z,95414.15
2023-03-24T08:55:06.998Z,95412.60
2023-03-24T08:57:36.951Z,95410.92
2023-03-24T09:00:17.057Z,95405.17
2023-03-24T09:02:57.063Z,95406.91
2023-03-24T09:05:54.237Z,95399.06
2023-03-24T09:08:04.247Z,95396.71
2023-03-24T09:10:38.595Z,95393.03
2023-03-24T09:16:37.296Z,95390.53
2023-03-24T09:19:07.880Z,95380.56
2023-03-24T09:25:08.576Z,95377.24
2023-03-24T09:27:39.251Z,95374.42
2023-03-24T09:30:12.091Z,95368.76
2023-03-24T09:32:42.143Z,95351.50
2023-03-24T09:35:17.509Z,95355.48
2023-03-24T09:37:48.399Z,95356.95
2023-03-24T09:40:23.713Z,95351.41
2023-03-24T09:42:58.492Z,95353.47
2023-03-24T09:45:34.080Z,95348.38
2023-03-24T09:48:07.253Z,95345.05
2023-03-24T09:50:49.463Z,95343.45
2023-03-24T09:53:39.667Z,95338.51
2023-03-24T10:06:24.731Z,95319.72
2023-03-24T10:12:49.786Z,95314.79
2023-03-24T10:15:37.341Z,95315.68
2023-03-24T10:18:18.756Z,95317.03
2023-03-24T10:20:50.830Z,95311.23
2023-03-24T10:26:45.146Z,95303.80
2023-03-24T10:29:20.962Z,95304.08
2023-03-24T10:32:10.521Z,95303.64
2023-03-24T10:34:45.283Z,95306.84
2023-03-24T10:37:18.997Z,95298.98
2023-03-24T10:39:52.504Z,95305.48
2023-03-24T10:42:34.780Z,95297.25
2023-03-24T10:45:11.235Z,95291.07
2023-03-24T10:54:01.250Z,95281.02
2023-03-24T10:56:46.311Z,95238.26
2023-03-24T10:59:27.624Z,95284.67
2023-03-24T11:02:20.451Z,95287.73
2023-03-24T11:07:56.425Z,95282.86
2023-03-24T11:10:29.334Z,95282.09
2023-03-24T11:13:02.659Z,95277.95
2023-03-24T11:15:33.865Z,95271.46
2023-03-24T11:18:19.272Z,95265.98
2023-03-24T11:21:01.208Z,95259.44
2023-03-24T11:23:36.000Z,95256.70
2023-03-24T11:26:13.347Z,95247.53
2023-03-24T11:28:55.863Z,95246.13
2023-03-24T11:31:31.286Z,95238.11
2023-03-24T11:34:12.124Z,95233.38
2023-03-24T11:36:58.009Z,95228.25
2023-03-24T11:39:38.030Z,95230.16
2023-03-24T11:46:27.851Z,95219.23
2023-03-24T11:49:04.776Z,95218.98
2023-03-24T11:51:48.462Z,95213.83
2023-03-24T11:54:21.942Z,95206.84
2023-03-24T11:56:57.053Z,95201.08
2023-03-24T11:59:44.010Z,95197.28
2023-03-24T12:02:16.224Z,95194.93
2023-03-24T12:05:07.073Z,95180.45
2023-03-24T12:07:56.777Z,95184.52
2023-03-24T12:10:28.817Z,95180.00
2023-03-24T12:13:29.932Z,95182.25
2023-03-24T12:16:07.897Z,95176.85
2023-03-24T12:18:52.000Z,95186.21
2023-03-24T12:21:26.846Z,95170.49
2023-03-24T12:24:02.614Z,95171.50
2023-03-24T12:26:35.683Z,95161.26
2023-03-24T12:32:53.999Z,95150.73
2023-03-24T12:35:54.056Z,95147.16
2023-03-24T12:38:54.560Z,95141.33
2023-03-24T12:41:56.005Z,95135.41
2023-03-24T12:45:07.413Z,95129.82
2023-03-24T12:51:28.557Z,95124.56
2023-03-24T12:57:29.338Z,95106.42
2023-03-24T13:00:01.704Z,95112.94
2023-03-24T13:02:39.409Z,95105.41
2023-03-24T13:05:16.049Z,95106.20
2023-03-24T13:07:51.367Z,95113.16
2023-03-24T13:10:26.210Z,95106.23
2023-03-24T13:12:59.548Z,95102.38
2023-03-24T13:15:35.389Z,95097.37
2023-03-24T13:18:16.140Z,95093.20
2023-03-24T13:20:56.964Z,95090.19
2023-03-24T13:24:00.320Z,95090.65
2023-03-24T13:27:04.512Z,95089.72
2023-03-24T13:29:48.618Z,95085.44
2023-03-24T13:32:26.713Z,95079.91
2023-03-24T13:35:16.340Z,95075.52
2023-03-24T13:37:53.878Z,95074.86
2023-03-24T13:40:25.615Z,95070.53
2023-03-24T13:43:02.011Z,95073.67
2023-03-24T13:45:49.509Z,95071.04
2023-03-24T13:48:24.398Z,95067.98
2023-03-24T13:50:59.800Z,95065.81
2023-03-24T13:53:42.212Z,95061.92
2023-03-24T13:56:17.914Z,95049.53
2023-03-24T13:59:01.590Z,95045.30
2023-03-24T14:01:36.515Z,95051.30
2023-03-24T14:04:29.090Z,95049.06
2023-03-24T14:07:00.391Z,95045.34
2023-03-24T14:09:33.125Z,95045.09
2023-03-24T14:12:08.605Z,95039.28
2023-03-24T14:14:40.190Z,95031.28
2023-03-24T14:17:16.543Z,95031.52
2023-03-24T14:20:05.251Z,95029.79
2023-03-24T14:22:39.174Z,95033.25
2023-03-24T14:25:19.831Z,95031.74
2023-03-24T14:27:50.288Z,94973.07
2023-03-24T14:30:25.263Z,95023.93
2023-03-24T14:32:58.906Z,95024.84
2023-03-24T14:35:49.300Z,95025.94
2023-03-24T14:38:23.280Z,95035.14
2023-03-24T14:40:54.946Z,95027.84
2023-03-24T14:43:31.930Z,95025.69
2023-03-24T14:46:26.282Z,95028.30
2023-03-24T14:49:03.725Z,95025.08
2023-03-24T14:55:10.221Z,95026.83
2023-03-24T14:57:42.033Z,95021.61
2023-03-24T15:00:47.184Z,95030.58
2023-03-24T15:03:21.535Z,95025.70
2023-03-24T15:05:50.394Z,95014.24
2023-03-24T15:08:23.957Z,95014.02
2023-03-24T15:10:58.257Z,95013.14
2023-03-24T15:13:42.145Z,95013.93
2023-03-24T15:16:16.904Z,95012.49
2023-03-24T15:19:03.586Z,95015.80
2023-03-24T15:21:38.042Z,95011.46
2023-03-24T15:24:33.556Z,95010.61
2023-03-24T15:27:11.346Z,95011.46
2023-03-24T15:29:46.273Z,95009.95
2023-03-24T15:35:02.545Z,95016.27
2023-03-24T15:41:33.811Z,95012.26
2023-03-24T15:44:05.440Z,95012.48
2023-03-24T15:46:35.461Z,95009.16
2023-03-24T15:49:08.667Z,95010.33
2023-03-24T15:52:08.612Z,95008.80
2023-03-24T15:57:55.339Z,95006.78
2023-03-24T16:00:19.372Z,95005.74
2023-03-24T16:06:11.114Z,95011.98
2023-03-24T16:08:44.945Z,95007.38
2023-03-24T16:11:50.971Z,94988.38
2023-03-24T16:14:14.245Z,95011.16
2023-03-24T16:16:44.449Z,95009.31
2023-03-24T16:19:16.394Z,95014.66
2023-03-24T16:21:45.008Z,95007.97
2023-03-24T16:24:13.661Z,95011.70
2023-03-24T16:26:42.407Z,95010.28
2023-03-24T16:29:17.048Z,95005.12
2023-03-24T16:31:49.094Z,95005.45
2023-03-24T16:34:21.152Z,95012.34
2023-03-24T16:36:52.038Z,95011.43
2023-03-24T16:39:29.343Z,95006.14
2023-03-24T16:41:58.906Z,95014.66
2023-03-24T16:44:34.497Z,94994.48
2023-03-24T16:47:17.964Z,95011.29
2023-03-24T16:49:48.195Z,95010.64
2023-03-24T16:52:18.334Z,95013.23
2023-03-24T16:54:49.560Z,95015.62
2023-03-24T16:57:18.347Z,95009.57
2023-03-24T16:59:49.888Z,95015.85
2023-03-24T17:02:18.666Z,95016.78
2023-03-24T17:04:53.325Z,95012.00
2023-03-24T17:07:24.939Z,95017.00
2023-03-24T17:10:01.213Z,95015.81
2023-03-24T17:12:30.349Z,95014.05
2023-03-24T17:15:05.027Z,95017.53
2023-03-24T17:17:37.203Z,95016.02
2023-03-24T17:20:06.903Z,95016.92
2023-03-24T17:22:35.722Z,95026.09
2023-03-24T17:25:04.675Z,95019.70
2023-03-24T17:27:37.745Z,95018.55
2023-03-24T17:30:21.632Z,95026.66
2023-03-24T17:32:57.025Z,95032.06
2023-03-24T17:35:40.131Z,95036.14
2023-03-24T17:39:15.103Z,95033.41
2023-03-24T17:51:47.334Z,95029.66
2023-03-24T17:54:52.058Z,95036.16
2023-03-24T17:57:45.746Z,95035.42
2023-03-24T18:01:08.366Z,95038.39
2023-03-24T18:06:34.936Z,95038.78
2023-03-24T18:09:18.112Z,95039.80
2023-03-24T18:18:55.911Z,95039.56
2023-03-24T18:21:41.786Z,95041.91
2023-03-24T18:24:27.704Z,95040.81
2023-03-24T18:27:09.916Z,95043.89
2023-03-24T18:29:43.383Z,95037.80
2023-03-24T18:32:23.373Z,95035.33
2023-03-24T18:35:22.044Z,95037.05
2023-03-24T18:38:18.465Z,95048.75
2023-03-24T18:49:41.621Z,95053.94
2023-03-24T18:51:38.700Z,95053.98
2023-03-24T18:54:16.924Z,95059.34
2023-03-24T18:57:16.506Z,95058.20
2023-03-24T19:15:42.565Z,95065.62
2023-03-24T19:19:43.622Z,95067.74
2023-03-24T19:22:11.430Z,95066.58
2023-03-24T19:24:57.542Z,95066.38
2023-03-24T19:30:58.088Z,95067.73
2023-03-24T19:58:47.607Z,95076.97
2023-03-24T20:07:36.002Z,95073.11
2023-03-24T20:11:45.586Z,95081.48
2023-03-24T20:16:57.891Z,95078.98
2023-03-24T20:40:10.856Z,95068.73
2023-03-24T20:43:10.920Z,95074.81
2023-03-24T20:49:04.455Z,95071.87
2023-03-24T20:51:41.693Z,95065.13
2023-03-24T20:54:13.213Z,95074.25
2023-03-24T20:59:55.199Z,95073.64
2023-03-24T21:17:45.888Z,95074.44
2023-03-24T21:20:28.335Z,95079.77
2023-03-24T21:23:01.800Z,95083.77
2023-03-24T21:25:37.397Z,95087.92
2023-03-24T21:28:29.673Z,95087.30
2023-03-24T21:30:59.496Z,95088.62
2023-03-24T21:33:28.695Z,95093.11
2023-03-24T21:35:59.397Z,95086.63
2023-03-24T21:38:28.785Z,95087.24
2023-03-24T21:41:04.656Z,95088.39
2023-03-24T21:43:35.279Z,95093.53
2023-03-24T21:46:04.410Z,95095.20
2023-03-24T21:48:38.311Z,95092.72
2023-03-24T21:51:09.490Z,95093.05
2023-03-24T21:53:42.803Z,95082.94
2023-03-24T21:56:19.191Z,95087.00
2023-03-24T21:58:58.239Z,95067.84
2023-03-24T22:01:34.249Z,95076.22
2023-03-24T22:04:22.658Z,95085.94
2023-03-24T22:07:08.305Z,95083.80
2023-03-24T22:09:39.011Z,95074.84
2023-03-24T22:12:19.449Z,95081.23
2023-03-24T22:18:04.489Z,95081.93
2023-03-24T22:21:15.764Z,95076.92
2023-03-24T22:23:31.537Z,95078.83
2023-03-24T22:26:08.115Z,95085.80
2023-03-24T22:28:40.060Z,95085.47
2023-03-24T22:31:16.652Z,95089.39
2023-03-24T22:33:48.010Z,95087.56
2023-03-24T22:36:16.796Z,95071.55
2023-03-24T22:38:45.556Z,95083.80
2023-03-24T22:41:14.809Z,95083.34
2023-03-24T22:43:47.557Z,95088.26
2023-03-24T22:46:22.561Z,95095.54
2023-03-24T22:48:55.835Z,95091.06
2023-03-24T22:51:25.691Z,95094.77
2023-03-24T22:53:58.506Z,95089.64
2023-03-24T23:00:02.654Z,95095.05
2023-03-24T23:02:31.551Z,95099.52
2023-03-24T23:05:00.484Z,95096.80
2023-03-24T23:07:29.682Z,95096.38
2023-03-24T23:09:59.683Z,95094.59
2023-03-24T23:12:29.149Z,95086.80
2023-03-24T23:14:57.937Z,95077.29
2023-03-24T23:17:26.671Z,95079.95
2023-03-24T23:19:56.326Z,95079.23
2023-03-24T23:22:25.115Z,95075.55
2023-03-24T23:25:00.777Z,95072.25
2023-03-24T23:27:26.891Z,95077.51
2023-03-24T23:29:57.612Z,95076.54
2023-03-24T23:32:31.632Z,95086.41
2023-03-24T23:35:05.972Z,95086.70
2023-03-24T23:37:45.019Z,95082.36
2023-03-24T23:40:21.549Z,95081.99
2023-03-24T23:42:58.062Z,95080.56
2023-03-24T23:48:24.394Z,95083.55
2023-03-24T23:51:20.636Z,95079.75
2023-03-24T23:53:58.630Z,95084.21
2023-03-24T23:56:36.370Z,95076.28
2023-03-24T23:59:06.590Z,95075.92
